createdAt,value
2018-10-17T00:00:02.681Z,0
2018-10-17T00:05:02.464Z,0
2018-10-17T00:10:02.622Z,0
2018-10-17T00:15:03.153Z,0
2018-10-17T00:20:02.682Z,0
2018-10-17T00:25:03.577Z,0
2018-10-17T00:30:02.628Z,0
2018-10-17T00:35:03.359Z,0
2018-10-17T00:40:02.516Z,0
2018-10-17T00:45:03.136Z,0
2018-10-17T00:50:02.714Z,0
2018-10-17T00:55:03.436Z,0
2018-10-17T01:00:03.281Z,0
2018-10-17T01:05:02.982Z,0
2018-10-17T01:10:03.154Z,0
2018-10-17T01:15:02.760Z,0
2018-10-17T01:20:02.436Z,0
2018-10-17T01:25:03.335Z,0
2018-10-17T01:30:03.288Z,0
2018-10-17T01:35:03.111Z,0
2018-10-17T01:40:03.156Z,0
2018-10-17T01:45:02.727Z,0
2018-10-17T01:50:03.269Z,0
2018-10-17T01:55:02.899Z,0
2018-10-17T02:00:02.803Z,0
2018-10-17T02:05:03.388Z,0
2018-10-17T02:10:03.303Z,0
2018-10-17T02:15:02.858Z,0
2018-10-17T02:20:02.486Z,0
2018-10-17T02:25:03.361Z,0
2018-10-17T02:30:03.564Z,0
2018-10-17T02:35:03.113Z,0
2018-10-17T02:40:03.378Z,0
2018-10-17T02:45:03.006Z,0
2018-10-17T02:50:02.580Z,0
2018-10-17T02:55:03.409Z,0
2018-10-17T03:00:02.384Z,0
2018-10-17T03:05:03.187Z,0
2018-10-17T03:10:03.290Z,0
2018-10-17T03:15:02.890Z,0
2018-10-17T03:20:02.571Z,0
2018-10-17T03:25:03.295Z,0
2018-10-17T03:30:03.282Z,0
2018-10-17T03:35:03.136Z,0
2018-10-17T03:40:02.400Z,0
2018-10-17T03:45:03.028Z,0
2018-10-17T03:50:02.908Z,0
2018-10-17T03:55:03.189Z,0
2018-10-17T04:00:03.194Z,0
2018-10-17T04:05:02.964Z,0
2018-10-17T04:10:03.058Z,0
2018-10-17T04:15:02.628Z,0
2018-10-17T04:20:03.271Z,0
2018-10-17T04:25:02.899Z,0
2018-10-17T04:30:02.781Z,0
2018-10-17T04:35:02.523Z,0
2018-10-17T04:40:02.601Z,0
2018-10-17T04:45:03.279Z,0
2018-10-17T04:50:02.832Z,0
2018-10-17T04:55:02.561Z,0
2018-10-17T05:00:02.621Z,0
2018-10-17T05:05:03.356Z,0
2018-10-17T05:10:02.429Z,0
2018-10-17T05:15:03.127Z,0
2018-10-17T05:20:03.010Z,0
2018-10-17T05:25:02.770Z,0
2018-10-17T05:30:02.644Z,1
2018-10-17T05:35:03.329Z,2
2018-10-17T05:40:02.367Z,6
2018-10-17T05:45:02.922Z,15
2018-10-17T05:50:02.482Z,37
2018-10-17T05:55:03.154Z,56
2018-10-17T06:00:03.298Z,76
2018-10-17T06:05:03.068Z,89
2018-10-17T06:10:03.208Z,135
2018-10-17T06:15:02.918Z,354
2018-10-17T06:20:02.645Z,484
2018-10-17T06:25:03.412Z,615
2018-10-17T06:30:03.325Z,713
2018-10-17T06:35:03.102Z,996
2018-10-17T06:40:02.834Z,1000
2018-10-17T06:45:02.511Z,1000
2018-10-17T06:50:03.180Z,1000
2018-10-17T06:55:02.965Z,1000
2018-10-17T07:00:03.140Z,1000
2018-10-17T07:05:03.042Z,2000
2018-10-17T07:10:03.004Z,2000
2018-10-17T07:15:02.655Z,2000
2018-10-17T07:20:02.591Z,2000
2018-10-17T07:25:03.249Z,2000
2018-10-17T07:30:03.252Z,2000
2018-10-17T07:35:02.920Z,2000
2018-10-17T07:40:02.534Z,2000
2018-10-17T07:45:03.200Z,2000
2018-10-17T07:50:02.891Z,2000
2018-10-17T07:55:02.474Z,10000
2018-10-17T08:00:03.160Z,12000
2018-10-17T08:05:03.284Z,10000
2018-10-17T08:10:03.116Z,14000
2018-10-17T08:15:02.939Z,20000
2018-10-17T08:20:02.601Z,24000
2018-10-17T08:25:03.286Z,25000
2018-10-17T08:30:03.053Z,26000
2018-10-17T08:35:03.177Z,20000
2018-10-17T08:40:02.908Z,24000
2018-10-17T08:45:02.771Z,27000
2018-10-17T08:50:03.022Z,27000
2018-10-17T08:55:03.002Z,29000
2018-10-17T09:00:02.609Z,27000
2018-10-17T09:05:03.282Z,31000
2018-10-17T09:10:03.002Z,29000
2018-10-17T09:15:02.566Z,29000
2018-10-17T09:20:04.327Z,31000
2018-10-17T09:25:02.600Z,32000
2018-10-17T09:30:02.736Z,32000
2018-10-17T09:35:02.951Z,32000
2018-10-17T09:40:03.169Z,31000
2018-10-17T09:45:03.148Z,27000
2018-10-17T09:50:02.794Z,25000
2018-10-17T09:55:02.389Z,28000
2018-10-17T10:00:03.126Z,33000
2018-10-17T10:05:02.370Z,34000
2018-10-17T10:10:03.127Z,34000
2018-10-17T10:15:03.241Z,34000
2018-10-17T10:20:02.892Z,34000
2018-10-17T10:25:02.517Z,34000
2018-10-17T10:30:03.293Z,35000
2018-10-17T10:35:03.033Z,21000
2018-10-17T10:40:02.971Z,18000
2018-10-17T10:45:03.097Z,14000
2018-10-17T10:50:02.489Z,13000
2018-10-17T10:55:02.720Z,14000
2018-10-17T11:00:03.423Z,12000
2018-10-17T11:05:02.781Z,13000
2018-10-17T11:10:03.033Z,17000
2018-10-17T11:15:02.775Z,16000
2018-10-17T11:20:02.957Z,21000
2018-10-17T11:25:02.584Z,18000
2018-10-17T11:30:03.181Z,12000
2018-10-17T11:35:02.792Z,11000
2018-10-17T11:40:03.149Z,8000
2018-10-17T11:45:03.134Z,7000
2018-10-17T11:50:03.195Z,7000
2018-10-17T11:55:02.749Z,12000
2018-10-17T12:00:02.413Z,9000
2018-10-17T12:05:03.598Z,7000
2018-10-17T12:10:02.800Z,7000
2018-10-17T12:15:02.504Z,20000
2018-10-17T12:20:02.421Z,27000
2018-10-17T12:25:03.073Z,28000
2018-10-17T12:30:02.729Z,29000
2018-10-17T12:35:03.053Z,28000
2018-10-17T12:40:03.287Z,27000
2018-10-17T12:45:02.573Z,26000
2018-10-17T12:50:02.569Z,26000
2018-10-17T12:55:02.675Z,26000
2018-10-17T13:00:02.879Z,25000
2018-10-17T13:05:02.644Z,25000
2018-10-17T13:10:02.773Z,24000
2018-10-17T13:15:02.660Z,23000
2018-10-17T13:20:03.268Z,22000
2018-10-17T13:25:03.043Z,22000
2018-10-17T13:30:03.032Z,21000
2018-10-17T13:35:02.814Z,20000
2018-10-17T13:40:02.886Z,19000
2018-10-17T13:45:02.563Z,19000
2018-10-17T13:50:03.217Z,19000
2018-10-17T13:55:02.927Z,10000
2018-10-17T14:00:02.541Z,8000
2018-10-17T14:05:03.358Z,13000
2018-10-17T14:10:03.047Z,16000
2018-10-17T14:15:02.769Z,16000
2018-10-17T14:20:02.845Z,14000
2018-10-17T14:25:02.453Z,8000
2018-10-17T14:30:03.189Z,7000
2018-10-17T14:35:03.343Z,6000
2018-10-17T14:40:02.991Z,11000
2018-10-17T14:45:02.754Z,10000
2018-10-17T14:50:03.000Z,9000
2018-10-17T14:55:02.586Z,6000
2018-10-17T15:00:03.205Z,5000
2018-10-17T15:05:03.102Z,7000
2018-10-17T15:10:03.211Z,4000
2018-10-17T15:15:02.646Z,3000
2018-10-17T15:20:02.644Z,3000
2018-10-17T15:25:03.237Z,3000
2018-10-17T15:30:03.007Z,3000
2018-10-17T15:35:02.919Z,4000
2018-10-17T15:40:02.498Z,3000
2018-10-17T15:45:03.325Z,3000
2018-10-17T15:50:03.339Z,2000
2018-10-17T15:55:02.900Z,1000
2018-10-17T16:00:02.646Z,1000
2018-10-17T16:05:02.837Z,1000
2018-10-17T16:10:02.412Z,812
2018-10-17T16:15:03.025Z,718
2018-10-17T16:20:02.905Z,654
2018-10-17T16:25:02.892Z,412
2018-10-17T16:30:02.692Z,280
2018-10-17T16:35:02.947Z,150
2018-10-17T16:40:02.706Z,90
2018-10-17T16:45:03.292Z,74
2018-10-17T16:50:03.048Z,79
2018-10-17T16:55:02.449Z,27
2018-10-17T17:00:03.492Z,12
2018-10-17T17:05:02.603Z,5
2018-10-17T17:10:03.396Z,2
2018-10-17T17:15:03.180Z,1
2018-10-17T17:20:03.364Z,0
2018-10-17T17:25:02.978Z,0
2018-10-17T17:30:02.681Z,0
2018-10-17T17:35:02.651Z,0
2018-10-17T17:40:02.375Z,0
2018-10-17T17:45:03.026Z,0
2018-10-17T17:50:02.724Z,0
2018-10-17T17:55:03.333Z,0
2018-10-17T18:00:02.887Z,0
2018-10-17T18:05:02.497Z,0
2018-10-17T18:10:03.316Z,0
2018-10-17T18:15:03.357Z,0
2018-10-17T18:20:03.219Z,0
2018-10-17T18:25:02.840Z,0
2018-10-17T18:30:02.399Z,0
2018-10-17T18:35:03.029Z,0
2018-10-17T18:40:02.807Z,0
2018-10-17T18:45:02.720Z,0
2018-10-17T18:50:03.359Z,0
2018-10-17T18:55:02.950Z,0
2018-10-17T19:00:02.602Z,0
2018-10-17T19:05:03.258Z,0
2018-10-17T19:10:02.932Z,0
2018-10-17T19:15:02.716Z,0
2018-10-17T19:20:02.890Z,0
2018-10-17T19:25:02.498Z,0
2018-10-17T19:30:03.132Z,0
2018-10-17T19:35:02.901Z,0
2018-10-17T19:40:02.539Z,0
2018-10-17T19:45:03.397Z,0
2018-10-17T19:50:02.622Z,0
2018-10-17T19:55:03.178Z,0
2018-10-17T20:00:02.792Z,0
2018-10-17T20:05:02.388Z,0
2018-10-17T20:10:03.045Z,0
2018-10-17T20:15:02.711Z,0
2018-10-17T20:20:02.786Z,0
2018-10-17T20:25:02.545Z,0
2018-10-17T20:30:02.635Z,0
2018-10-17T20:35:03.490Z,0
2018-10-17T20:40:02.734Z,0
2018-10-17T20:45:03.329Z,0
2018-10-17T20:50:03.066Z,0
2018-10-17T20:55:02.994Z,0
2018-10-17T21:00:02.504Z,0
2018-10-17T21:05:03.254Z,0
2018-10-17T21:10:02.867Z,0
2018-10-17T21:15:02.499Z,0
2018-10-17T21:20:03.533Z,0
2018-10-17T21:25:02.660Z,0
2018-10-17T21:30:03.311Z,0
2018-10-17T21:35:02.945Z,0
2018-10-17T21:40:02.590Z,0
2018-10-17T21:45:03.189Z,0
2018-10-17T21:50:03.017Z,0
2018-10-17T21:55:03.042Z,0
2018-10-17T22:00:02.596Z,0
2018-10-17T22:05:03.187Z,0
2018-10-17T22:10:02.972Z,0
2018-10-17T22:15:02.638Z,0
2018-10-17T22:20:03.433Z,0
2018-10-17T22:25:02.537Z,0
2018-10-17T22:30:03.544Z,0
2018-10-17T22:35:02.790Z,0
2018-10-17T22:40:02.613Z,0
2018-10-17T22:45:03.252Z,0
2018-10-17T22:50:02.951Z,0
2018-10-17T22:55:03.148Z,0
2018-10-17T23:00:02.896Z,0
2018-10-17T23:05:03.159Z,0
2018-10-17T23:10:02.822Z,0
2018-10-17T23:15:02.399Z,0
2018-10-17T23:20:03.213Z,0
2018-10-17T23:25:02.398Z,0
2018-10-17T23:30:03.019Z,0
2018-10-17T23:35:02.621Z,0
2018-10-17T23:40:03.253Z,0
2018-10-17T23:45:02.855Z,0
2018-10-17T23:50:02.755Z,0
2018-10-17T23:55:02.834Z,0
